ハバロフスク の空港の天気 - METARとTAF

ハバロフスク空港 ( UHHH / KHV ) - ロシア ハバロフスク
飛行場実況気象(Metar)
観測時間01/19 21:00 VLAT (01/19 11:00 UTC)
風向・風速南南東 2m/s
視程10km以上
天気現象
なし
気温-15℃
湿度55%
気圧1016hPa
METARUHHH 191100Z 16002MPS CAVOK M15/M22 Q1016 R23L/090060 NOSIG RMK QFE755/1007
過去の天気等 Google飛行場航空写真 Wunderground天気予報

過去48時間のMETAR

飛行場予報(TAF)
発表時間: 1/19 17:46 VLAT (1/19 07:46 UTC)
予報対象時間: 19日19時 VLAT ~ 21日1時 VLAT
風向・風速南南東 3m/s
視程10km以上
全天の4割程度の雲 雲底高度 610m
20日0時 VLAT ~ 20日10時 VLAT に一時的に
風向・風速東北東 3m/s
視程2000m
天気現象
全天の4割程度の雲 雲底高度 210m
全天の8割程度の雲 雲底高度 610m
TAF UHHH 190746Z 1909/2015 16003MPS 9999 SCT020
TEMPO 1914/1924 07003MPS 2000 SN SCT007 BKN020